createdAt,value
2022-10-28T00:03:19.433Z,17.46
2022-10-28T00:08:20.869Z,17.40
2022-10-28T00:13:22.323Z,17.33
2022-10-28T00:18:23.756Z,17.36
2022-10-28T00:23:25.181Z,17.42
2022-10-28T00:28:26.641Z,17.35
2022-10-28T00:33:28.031Z,17.45
2022-10-28T00:38:30.783Z,17.49
2022-10-28T00:43:40.959Z,17.39
2022-10-28T00:48:45.133Z,17.53
2022-10-28T00:53:48.240Z,17.51
2022-10-28T00:58:51.173Z,17.53
2022-10-28T01:03:53.696Z,17.62
2022-10-28T01:08:59.046Z,17.56
2022-10-28T01:14:23.613Z,17.45
2022-10-28T01:19:43.943Z,17.50
2022-10-28T01:25:02.429Z,17.51
2022-10-28T01:30:23.673Z,17.48
2022-10-28T01:35:43.733Z,17.32
2022-10-28T01:40:57.090Z,17.27
2022-10-28T01:46:04.397Z,17.18
2022-10-28T01:51:22.373Z,17.09
2022-10-28T01:56:30.952Z,17.11
2022-10-28T02:01:34.076Z,17.08
2022-10-28T02:06:38.776Z,16.96
2022-10-28T02:12:07.576Z,16.84
2022-10-28T02:17:30.224Z,16.83
2022-10-28T02:22:57.930Z,16.83
2022-10-28T02:28:08.399Z,16.70
2022-10-28T02:33:13.100Z,16.72
2022-10-28T02:38:20.791Z,16.87
2022-10-28T02:43:24.811Z,16.78
2022-10-28T02:48:31.157Z,16.74
2022-10-28T02:53:42.407Z,16.68
2022-10-28T02:58:45.408Z,16.61
2022-10-28T03:03:46.924Z,16.57
2022-10-28T03:08:48.400Z,16.56
2022-10-28T03:13:49.914Z,16.50
2022-10-28T03:18:51.335Z,16.44
2022-10-28T03:23:52.935Z,16.39
2022-10-28T03:28:54.368Z,16.36
2022-10-28T03:33:56.004Z,16.37
2022-10-28T03:38:57.475Z,16.34
2022-10-28T03:43:59.105Z,16.27
2022-10-28T03:49:00.562Z,16.32
2022-10-28T03:54:02.100Z,16.20
2022-10-28T03:59:03.587Z,16.27
2022-10-28T04:04:05.397Z,16.28
2022-10-28T04:09:06.930Z,16.19
2022-10-28T04:14:08.410Z,16.04
2022-10-28T04:19:09.888Z,15.96
2022-10-28T04:24:11.381Z,15.91
2022-10-28T04:29:12.840Z,15.89
2022-10-28T04:34:14.375Z,15.85
2022-10-28T04:39:15.904Z,15.88
2022-10-28T04:44:17.436Z,16.08
2022-10-28T04:49:18.902Z,15.98
2022-10-28T04:54:20.327Z,16.00
2022-10-28T04:59:21.799Z,16.09
2022-10-28T05:04:23.363Z,16.04
2022-10-28T05:09:24.849Z,16.09
2022-10-28T05:14:26.356Z,16.08
2022-10-28T05:19:27.837Z,16.09
2022-10-28T05:24:29.318Z,16.10
2022-10-28T05:29:33.332Z,16.00
2022-10-28T05:34:35.073Z,16.02
2022-10-28T05:39:36.523Z,16.01
2022-10-28T05:44:38.126Z,15.87
2022-10-28T05:49:39.831Z,15.86
2022-10-28T05:54:41.334Z,15.82
2022-10-28T05:59:42.788Z,15.83
2022-10-28T06:04:44.275Z,15.87
2022-10-28T06:09:45.740Z,15.90
2022-10-28T06:14:45.745Z,15.89
2022-10-28T06:19:47.271Z,15.90
2022-10-28T06:24:48.738Z,15.84
2022-10-28T06:29:50.179Z,15.95
2022-10-28T06:34:51.787Z,15.88
2022-10-28T06:39:53.344Z,16.02
2022-10-28T06:44:54.957Z,15.95
2022-10-28T06:49:57.961Z,16.15
2022-10-28T06:54:59.393Z,16.16
2022-10-28T07:00:00.888Z,16.18
2022-10-28T07:05:02.330Z,16.18
2022-10-28T07:10:07.346Z,16.28
2022-10-28T07:15:10.201Z,16.43
2022-10-28T07:20:11.839Z,16.57
2022-10-28T07:25:13.426Z,16.65
2022-10-28T07:30:15.004Z,16.83
2022-10-28T07:35:16.637Z,16.87
2022-10-28T07:40:19.316Z,16.92
2022-10-28T07:45:21.163Z,17.10
2022-10-28T07:50:22.785Z,17.15
2022-10-28T07:55:26.074Z,17.20
2022-10-28T08:00:27.686Z,17.30
2022-10-28T08:05:29.227Z,17.31
2022-10-28T08:10:30.675Z,17.25
2022-10-28T08:15:32.223Z,17.22
2022-10-28T08:20:33.751Z,17.22
2022-10-28T08:25:37.101Z,17.39
2022-10-28T08:30:56.659Z,17.69
2022-10-28T08:35:58.969Z,17.82
2022-10-28T08:41:06.338Z,17.95
2022-10-28T08:46:36.569Z,18.13
2022-10-28T08:52:02.116Z,18.40
2022-10-28T08:57:11.058Z,18.51
2022-10-28T09:02:24.691Z,18.72
2022-10-28T09:07:26.170Z,18.81
2022-10-28T09:12:53.987Z,18.92
2022-10-28T09:18:00.205Z,19.03
2022-10-28T09:23:23.334Z,19.10
2022-10-28T09:28:43.410Z,19.18
2022-10-28T09:33:55.909Z,19.46
2022-10-28T09:39:01.111Z,19.62
2022-10-28T09:44:12.356Z,19.76
2022-10-28T09:49:24.034Z,19.92
2022-10-28T09:54:34.643Z,19.88
2022-10-28T09:59:36.334Z,19.88
2022-10-28T10:04:37.858Z,20.13
2022-10-28T10:09:39.769Z,20.46
2022-10-28T10:14:56.519Z,20.54
2022-10-28T10:20:01.230Z,20.60
2022-10-28T10:25:21.271Z,20.76
2022-10-28T10:30:31.480Z,20.87
2022-10-28T10:35:37.652Z,21.05
2022-10-28T10:40:50.943Z,20.97
2022-10-28T10:46:18.055Z,21.52
2022-10-28T10:51:25.849Z,21.52
2022-10-28T10:56:32.978Z,21.59
2022-10-28T11:01:39.567Z,21.68
2022-10-28T11:06:48.698Z,21.82
2022-10-28T11:11:53.182Z,22.10
2022-10-28T11:16:59.791Z,22.33
2022-10-28T11:22:17.060Z,22.30
2022-10-28T11:27:40.705Z,22.40
2022-10-28T11:33:14.797Z,22.30
2022-10-28T11:38:35.099Z,22.77
2022-10-28T11:43:58.582Z,22.80
2022-10-28T11:49:37.841Z,23.09
2022-10-28T11:55:07.921Z,23.22
2022-10-28T12:00:34.928Z,23.43
2022-10-28T12:05:43.674Z,23.45
2022-10-28T12:11:11.633Z,23.46
2022-10-28T12:16:37.159Z,23.44
2022-10-28T12:21:57.432Z,23.38
2022-10-28T12:27:02.766Z,23.41
2022-10-28T12:32:12.255Z,23.37
2022-10-28T12:37:24.766Z,23.27
2022-10-28T12:42:34.032Z,23.33
2022-10-28T12:48:03.040Z,23.35
2022-10-28T12:53:04.500Z,23.31
2022-10-28T12:58:29.633Z,23.52
2022-10-28T13:03:31.559Z,23.68
2022-10-28T13:08:49.008Z,23.67
2022-10-28T13:14:02.260Z,23.62
2022-10-28T13:19:17.658Z,23.62
2022-10-28T13:24:51.903Z,23.70
2022-10-28T13:29:56.967Z,23.57
2022-10-28T13:35:00.419Z,23.65
2022-10-28T13:40:01.963Z,23.46
2022-10-28T13:45:03.888Z,23.46
2022-10-28T13:50:08.780Z,23.33
2022-10-28T13:55:27.293Z,23.17
2022-10-28T14:05:33.328Z,23.22
2022-10-28T14:10:38.425Z,23.12
2022-10-28T14:15:40.863Z,23.02
2022-10-28T14:20:48.262Z,23.05
2022-10-28T14:25:49.666Z,22.83
2022-10-28T14:31:12.265Z,22.94
2022-10-28T14:36:19.659Z,22.85
2022-10-28T14:41:36.059Z,22.82
2022-10-28T14:46:56.594Z,22.76
2022-10-28T14:52:07.334Z,22.70
2022-10-28T14:57:10.245Z,22.63
2022-10-28T15:02:22.692Z,22.46
2022-10-28T15:07:24.488Z,22.38
2022-10-28T15:12:26.563Z,22.38
2022-10-28T15:17:39.296Z,22.30
2022-10-28T15:22:41.685Z,22.23
2022-10-28T15:27:45.927Z,22.09
2022-10-28T15:32:47.404Z,22.07
2022-10-28T15:37:48.908Z,21.96
2022-10-28T15:43:04.972Z,21.80
2022-10-28T15:48:13.692Z,21.71
2022-10-28T15:53:40.037Z,21.50
2022-10-28T15:58:43.674Z,21.45
2022-10-28T16:03:47.023Z,21.29
2022-10-28T16:08:59.793Z,21.36
2022-10-28T16:14:07.503Z,21.23
2022-10-28T16:19:17.720Z,21.11
2022-10-28T16:24:19.222Z,21.11
2022-10-28T16:29:20.722Z,20.95
2022-10-28T16:34:22.225Z,20.86
2022-10-28T16:39:23.689Z,20.77
2022-10-28T16:44:27.121Z,20.64
2022-10-28T16:49:28.687Z,20.63
2022-10-28T16:54:30.133Z,20.52
2022-10-28T16:59:31.869Z,20.43
2022-10-28T17:04:33.406Z,20.38
2022-10-28T17:09:34.869Z,20.28
2022-10-28T17:14:36.323Z,20.24
2022-10-28T17:19:38.557Z,20.24
2022-10-28T17:24:40.076Z,19.96
2022-10-28T17:29:41.620Z,19.85
2022-10-28T17:34:43.210Z,19.77
2022-10-28T17:39:44.836Z,19.79
2022-10-28T17:44:46.364Z,19.74
2022-10-28T17:49:47.906Z,19.55
2022-10-28T17:54:49.398Z,19.31
2022-10-28T17:59:50.864Z,19.27
2022-10-28T18:04:52.439Z,19.22
2022-10-28T18:09:54.021Z,19.05
2022-10-28T18:14:55.526Z,19.24
2022-10-28T18:19:57.697Z,19.38
2022-10-28T18:24:59.191Z,18.91
2022-10-28T18:30:00.716Z,18.87
2022-10-28T18:35:02.334Z,18.59
2022-10-28T18:40:04.211Z,18.53
2022-10-28T18:45:06.116Z,18.69
2022-10-28T18:50:07.968Z,18.72
2022-10-28T18:55:09.769Z,18.46
2022-10-28T19:00:18.026Z,18.39
2022-10-28T19:05:20.538Z,18.57
2022-10-28T19:10:22.049Z,18.39
2022-10-28T19:15:23.595Z,18.23
2022-10-28T19:20:25.250Z,18.29
2022-10-28T19:25:26.729Z,18.27
2022-10-28T19:30:28.327Z,17.98
2022-10-28T19:35:32.717Z,18.03
2022-10-28T19:40:34.198Z,18.21
2022-10-28T19:45:35.694Z,18.21
2022-10-28T19:50:37.313Z,18.42
2022-10-28T19:55:38.802Z,18.60
2022-10-28T20:00:40.334Z,18.74
2022-10-28T20:05:41.792Z,18.77
2022-10-28T20:10:44.019Z,18.69
2022-10-28T20:15:45.775Z,18.74
2022-10-28T20:20:47.594Z,18.65
2022-10-28T20:25:51.235Z,18.85
2022-10-28T20:31:07.532Z,18.96
2022-10-28T20:36:29.639Z,18.97
2022-10-28T20:41:33.487Z,19.07
2022-10-28T20:46:35.608Z,19.09
2022-10-28T20:51:37.073Z,18.98
2022-10-28T20:56:40.319Z,18.99
2022-10-28T21:01:42.004Z,18.91
2022-10-28T21:06:43.582Z,19.00
2022-10-28T21:11:46.177Z,18.99
2022-10-28T21:16:51.128Z,18.95
2022-10-28T21:21:52.515Z,18.87
2022-10-28T21:26:53.928Z,18.85
2022-10-28T21:31:55.344Z,18.82
2022-10-28T21:36:56.768Z,18.91
2022-10-28T21:41:58.185Z,18.93
2022-10-28T21:47:01.354Z,18.70
2022-10-28T21:52:02.824Z,18.59
2022-10-28T21:57:05.142Z,18.49
2022-10-28T22:02:06.651Z,18.28
2022-10-28T22:07:08.153Z,18.19
2022-10-28T22:12:09.553Z,18.14
2022-10-28T22:17:10.962Z,18.11
2022-10-28T22:22:13.671Z,18.07
2022-10-28T22:27:15.133Z,18.05
2022-10-28T22:32:16.558Z,17.99
2022-10-28T22:37:18.616Z,18.18
2022-10-28T22:42:20.093Z,18.15
2022-10-28T22:47:21.509Z,17.91
2022-10-28T22:52:22.915Z,17.70
2022-10-28T22:57:24.357Z,17.67
2022-10-28T23:02:25.830Z,17.60
2022-10-28T23:07:27.343Z,17.63
2022-10-28T23:12:28.800Z,17.71
2022-10-28T23:17:30.215Z,17.61
2022-10-28T23:22:31.679Z,17.75
2022-10-28T23:27:33.069Z,17.52
2022-10-28T23:32:34.918Z,17.73
2022-10-28T23:37:36.425Z,17.57
2022-10-28T23:42:37.863Z,17.59
2022-10-28T23:47:39.727Z,17.68
2022-10-28T23:52:41.731Z,17.58
2022-10-28T23:57:43.138Z,17.48
